Weather at UCSD Health System East Campus Interim Heliport

Public forecast

Using degrees Fahrenheit for public forecast. Weather courtesy of forecast.io.

Closest aviation weather report (METAR) to UCSD Health System East Campus Interim Heliport

Report is more than 6 hours old.

Closest report is Miramar Marine Corps Air Station - Mitscher Field, 4.0 nm (7.3 km) E.

2022/11/14 14:55 (retrieved 2 years ago)

KNKX 141455Z COR 08006KT 10SM FEW250 08/03 A3010 RMK AO2 SLP190 T00830028 53002

Closest aviation forecast (TAF) to UCSD Health System East Campus Interim Heliport

Forecast is more than 12 hours old.

Closest forecast is Miramar Marine Corps Air Station - Mitscher Field, 4.0 nm (7.3 km) E.

2023/02/22 18:12 Ammendment (retrieved 1 year ago)

TAF AMD KNKX 2218/2315 28025G35KT 9999 VCSH SCT020 BKN035 WSCONDS 650401 640507 520002 540203 520509 521409 522309 QNH2979INS TEMPO 2216/2222 28035G45KT -SHRA FM230030 27020G30KT 9999 VCSH SCT035 BKN045 650401 640507 520003 540303 520609 521509 522408 QNH2988INS BECMG 2309/2311 25015G25KT 8000 SHRA SCT035 BKN045 650401 640507 520003 540303 520609 521509 522408 QNH2996INS T11/2220Z T04/2313Z AMD 1810